Azteca — V7CH4 — position and weather

sailwx.info

Track history (hours):
 
Tides and Currents Weather Stations Pressure Air Temp Water Temp Dewpoint Dewpoint Depression Visibility Wind Speed Wind Dir Waves Ship Positions

Azteca

Last reported at 2017-Oct-17 22:12 UTC. Time now 2017-Oct-18 05:44 UTC.
Position N 40°48' E 028°42'.

Length 180 m; draft 6.6 m.

Type: Cargo ship. MMSI: 538005259.

Date/timePositionNaut miles runAvg speedWind from/ knotsBaromVisibWave heightAir tempDewpointWater temp
2017-Oct-17 22:12N 40°48' E 028°42'310.5
2017-Oct-17 21:56N 40°49' E 028°46'4 0.3
2017-Oct-17 06:29N 40°45' E 028°45'10 0.5
2017-Oct-16 08:38N 40°44' E 028°59'1 9.0
2017-Oct-16 08:28N 40°44' E 029°01'5 9.7
2017-Oct-16 07:58N 40°44' E 029°07'510.7
2017-Oct-16 07:30N 40°44' E 029°14'510.7
2017-Oct-16 07:00N 40°44' E 029°21'6 9.9
2017-Oct-16 06:25N 40°45' E 029°29'  
2017-Oct-12 00:44N 40°44' E 029°19'210.5
2017-Oct-12 00:30N 40°44' E 029°16'611.2
2017-Oct-12 00:00N 40°44' E 029°09'510.8
2017-Oct-11 23:30N 40°44' E 029°01'510.7
2017-Oct-11 22:59N 40°44' E 028°54'30210.0
2017-Oct-10 16:45N 37°38' E 023°46'311.6
2017-Oct-10 16:30N 37°39' E 023°43'612.0
2017-Oct-10 16:00N 37°45' E 023°39'611.6
2017-Oct-10 15:30N 37°49' E 023°35'4 7.3
2017-Oct-10 15:00N 37°50' E 023°31'0 0.1
2017-Oct-10 13:51N 37°50' E 023°31'0 0.1
2017-Oct-10 13:30N 37°50' E 023°31'0 0.1
2017-Oct-10 13:00N 37°50' E 023°31'0 0.0
2017-Oct-10 12:27N 37°50' E 023°31'0 0.0
2017-Oct-10 12:00N 37°50' E 023°31'0 0.0
2017-Oct-10 11:30N 37°50' E 023°31'0 0.0
2017-Oct-10 11:00N 37°50' E 023°31'0 0.0
2017-Oct-10 10:30N 37°50' E 023°31'0 0.0
2017-Oct-10 10:00N 37°50' E 023°31'0 0.0
2017-Oct-10 09:30N 37°50' E 023°31'0 0.0
2017-Oct-10 09:00N 37°50' E 023°31'0 0.0
2017-Oct-10 08:30N 37°50' E 023°31'0 0.0
2017-Oct-10 08:00N 37°50' E 023°31'0 0.0
2017-Oct-10 07:30N 37°50' E 023°31'0 0.0
2017-Oct-10 07:00N 37°50' E 023°31'0 0.0
2017-Oct-10 06:30N 37°50' E 023°31'0 0.0
2017-Oct-10 06:00N 37°50' E 023°31'0 0.0
2017-Oct-10 05:30N 37°50' E 023°31'0 0.0
2017-Oct-10 05:00N 37°50' E 023°31'0 0.1
2017-Oct-10 04:30N 37°50' E 023°31'0 0.0
2017-Oct-10 04:00N 37°50' E 023°31'0 0.1
2017-Oct-10 03:30N 37°50' E 023°31'1 2.2
2017-Oct-10 03:00N 37°50' E 023°32'4 8.1
2017-Oct-10 02:31N 37°51' E 023°37'4 8.0
2017-Oct-10 02:00N 37°48' E 023°41'510.3
2017-Oct-10 01:31N 37°43' E 023°44'510.1
2017-Oct-10 01:01N 37°39' E 023°47'5 9.6
2017-Oct-10 00:31N 37°34' E 023°46'440 9.6
2017-Oct-08 02:50N 36°27' E 014°42'513.1
2017-Oct-08 02:29N 36°27' E 014°37'613.1
2017-Oct-08 02:00N 36°28' E 014°29'712.9
2017-Oct-08 01:30N 36°29' E 014°21'713.0
2017-Oct-08 00:59N 36°30' E 014°12'612.7
2017-Oct-08 00:29N 36°31' E 014°05'712.6
2017-Oct-07 23:57N 36°32' E 013°56'512.5
2017-Oct-07 23:30N 36°33' E 013°50'  
Track history (hours):
 
Tides and Currents Weather Stations Pressure Air Temp Water Temp Dewpoint Dewpoint Depression Visibility Wind Speed Wind Dir Waves Ship Positions

Azteca

Last reported at 2017-Oct-17 22:12 UTC. Time now 2017-Oct-18 05:44 UTC.
Position N 40°48' E 028°42'.

Length 180 m; draft 6.6 m.

Type: Cargo ship. MMSI: 538005259.

Date/timePositionNaut miles runAvg speedWind from/ knotsBaromVisibWave heightAir tempDewpointWater temp
2017-Oct-17 22:12N 40°48' E 028°42'310.5
2017-Oct-17 21:56N 40°49' E 028°46'4 0.3
2017-Oct-17 06:29N 40°45' E 028°45'10 0.5
2017-Oct-16 08:38N 40°44' E 028°59'1 9.0
2017-Oct-16 08:28N 40°44' E 029°01'5 9.7
2017-Oct-16 07:58N 40°44' E 029°07'510.7
2017-Oct-16 07:30N 40°44' E 029°14'510.7
2017-Oct-16 07:00N 40°44' E 029°21'6 9.9
2017-Oct-16 06:25N 40°45' E 029°29'  
2017-Oct-12 00:44N 40°44' E 029°19'210.5
2017-Oct-12 00:30N 40°44' E 029°16'611.2
2017-Oct-12 00:00N 40°44' E 029°09'510.8
2017-Oct-11 23:30N 40°44' E 029°01'510.7
2017-Oct-11 22:59N 40°44' E 028°54'30210.0
2017-Oct-10 16:45N 37°38' E 023°46'311.6
2017-Oct-10 16:30N 37°39' E 023°43'612.0
2017-Oct-10 16:00N 37°45' E 023°39'611.6
2017-Oct-10 15:30N 37°49' E 023°35'4 7.3
2017-Oct-10 15:00N 37°50' E 023°31'0 0.1
2017-Oct-10 13:51N 37°50' E 023°31'0 0.1
2017-Oct-10 13:30N 37°50' E 023°31'0 0.1
2017-Oct-10 13:00N 37°50' E 023°31'0 0.0
2017-Oct-10 12:27N 37°50' E 023°31'0 0.0
2017-Oct-10 12:00N 37°50' E 023°31'0 0.0
2017-Oct-10 11:30N 37°50' E 023°31'0 0.0
2017-Oct-10 11:00N 37°50' E 023°31'0 0.0
2017-Oct-10 10:30N 37°50' E 023°31'0 0.0
2017-Oct-10 10:00N 37°50' E 023°31'0 0.0
2017-Oct-10 09:30N 37°50' E 023°31'0 0.0
2017-Oct-10 09:00N 37°50' E 023°31'0 0.0
2017-Oct-10 08:30N 37°50' E 023°31'0 0.0
2017-Oct-10 08:00N 37°50' E 023°31'0 0.0
2017-Oct-10 07:30N 37°50' E 023°31'0 0.0
2017-Oct-10 07:00N 37°50' E 023°31'0 0.0
2017-Oct-10 06:30N 37°50' E 023°31'0 0.0
2017-Oct-10 06:00N 37°50' E 023°31'0 0.0
2017-Oct-10 05:30N 37°50' E 023°31'0 0.0
2017-Oct-10 05:00N 37°50' E 023°31'0 0.1
2017-Oct-10 04:30N 37°50' E 023°31'0 0.0
2017-Oct-10 04:00N 37°50' E 023°31'0 0.1
2017-Oct-10 03:30N 37°50' E 023°31'1 2.2
2017-Oct-10 03:00N 37°50' E 023°32'4 8.1
2017-Oct-10 02:31N 37°51' E 023°37'4 8.0
2017-Oct-10 02:00N 37°48' E 023°41'510.3
2017-Oct-10 01:31N 37°43' E 023°44'510.1
2017-Oct-10 01:01N 37°39' E 023°47'5 9.6
2017-Oct-10 00:31N 37°34' E 023°46'440 9.6
2017-Oct-08 02:50N 36°27' E 014°42'513.1
2017-Oct-08 02:29N 36°27' E 014°37'613.1
2017-Oct-08 02:00N 36°28' E 014°29'712.9
2017-Oct-08 01:30N 36°29' E 014°21'713.0
2017-Oct-08 00:59N 36°30' E 014°12'612.7
2017-Oct-08 00:29N 36°31' E 014°05'712.6
2017-Oct-07 23:57N 36°32' E 013°56'512.5
2017-Oct-07 23:30N 36°33' E 013°50'  

Dump ship's entire track history